Time;durP1;ratioP1;P1;durP2;ratioP2;P2;SDS_P1;SDS_P2;PMS_P1;PMS_P2;Temp;Humidity;BMP_temperature;BMP_pressure;BME280_temperature;BME280_humidity;BME280_pressure;Samples;Min_cycle;Max_cycle;Signal;HPM_P1;HPM_P2
2022/06/03 00:02:33;;;;;;;7.57;4.63;;;;;;;8.69;85.67;102325.13;4975653;28;20226;-72
2022/06/03 00:05:15;;;;;;;6.83;5.10;;;;;;;8.71;87.32;102319.28;5009087;28;20209;-71
2022/06/03 00:07:55;;;;;;;7.50;5.10;;;;;;;8.64;87.78;102324.91;5009657;28;20202;-71
2022/06/03 00:10:58;;;;;;;9.43;5.23;;;;;;;8.67;86.71;102324.16;5009326;28;20217;-72
2022/06/03 00:13:50;;;;;;;8.73;4.73;;;;;;;8.63;86.88;102320.59;5009751;28;20277;-72
2022/06/03 00:16:18;;;;;;;5.37;4.83;;;;;;;8.49;86.63;102315.56;4993840;28;20190;-71
2022/06/03 00:19:03;;;;;;;10.70;4.87;;;;;;;8.44;87.83;102317.03;5011523;28;20214;-71
2022/06/03 00:21:52;;;;;;;8.53;4.67;;;;;;;8.48;87.22;102313.84;5029195;28;20193;-71
2022/06/03 00:24:33;;;;;;;10.47;5.30;;;;;;;8.52;88.63;102316.59;5010781;28;20203;-72
2022/06/03 00:27:25;;;;;;;7.63;4.97;;;;;;;8.43;88.55;102310.16;5011374;28;20933;-72
2022/06/03 00:30:02;;;;;;;9.33;5.60;;;;;;;8.46;88.13;102312.84;5029361;28;20167;-72
2022/06/03 00:32:56;;;;;;;6.70;4.83;;;;;;;8.40;89.32;102315.09;5029012;28;20731;-71
2022/06/03 00:35:37;;;;;;;6.27;4.63;;;;;;;8.27;88.35;102323.81;4974697;28;20274;-71
2022/06/03 00:38:17;;;;;;;12.83;5.77;;;;;;;8.27;88.11;102328.91;5029110;28;20236;-71
2022/06/03 00:41:20;;;;;;;6.47;5.03;;;;;;;8.23;87.79;102326.09;4998328;28;20218;-72
2022/06/03 00:44:14;;;;;;;6.87;4.60;;;;;;;8.23;86.58;102315.91;5032702;28;20194;-72
2022/06/03 00:47:04;;;;;;;6.57;4.93;;;;;;;8.21;87.05;102325.16;5032762;28;20270;-71
2022/06/03 00:49:42;;;;;;;8.33;6.00;;;;;;;8.26;88.06;102328.81;5032358;28;20195;-71
2022/06/03 00:52:42;;;;;;;7.77;5.00;;;;;;;8.08;88.27;102325.28;5032613;28;20178;-71
2022/06/03 00:55:33;;;;;;;6.73;5.60;;;;;;;7.99;87.91;102318.03;5032244;28;20196;-71
2022/06/03 00:58:26;;;;;;;8.03;5.43;;;;;;;8.03;89.17;102312.28;5029422;28;20229;-71
2022/06/03 01:01:04;;;;;;;7.20;5.37;;;;;;;8.01;90.16;102321.50;5031912;28;20226;-71
2022/06/03 01:03:53;;;;;;;9.27;5.90;;;;;;;8.00;89.50;102322.31;5014804;28;20182;-71
2022/06/03 01:06:42;;;;;;;10.47;6.47;;;;;;;7.87;88.98;102319.91;5032034;28;20700;-72
2022/06/03 01:09:35;;;;;;;7.27;5.77;;;;;;;7.81;89.23;102322.13;5024322;28;20293;-72
2022/06/03 01:12:10;;;;;;;9.10;6.50;;;;;;;7.82;89.08;102323.88;5032030;28;20694;-71
2022/06/03 01:14:48;;;;;;;8.37;5.83;;;;;;;7.79;89.49;102321.16;5032015;28;20193;-71
2022/06/03 01:17:35;;;;;;;8.07;5.93;;;;;;;7.82;89.04;102315.34;5025313;28;20222;-71
2022/06/03 01:20:28;;;;;;;7.20;5.40;;;;;;;7.72;89.86;102321.63;5031856;28;20221;-71
2022/06/03 01:22:57;;;;;;;6.70;5.47;;;;;;;7.66;89.32;102318.75;5031571;28;20197;-71
2022/06/03 01:25:55;;;;;;;7.20;5.70;;;;;;;7.63;89.49;102323.69;5031621;28;20182;-71
2022/06/03 01:28:39;;;;;;;7.23;5.43;;;;;;;7.63;88.61;102322.78;5031765;28;20679;-72
2022/06/03 01:31:23;;;;;;;7.67;5.47;;;;;;;7.62;89.02;102323.59;5013804;28;20198;-71
2022/06/03 01:33:57;;;;;;;6.43;5.30;;;;;;;7.53;89.11;102320.53;5031624;28;20186;-72
2022/06/03 01:36:51;;;;;;;6.67;5.33;;;;;;;7.51;88.78;102324.69;5013753;28;20180;-71
2022/06/03 01:39:35;;;;;;;7.70;5.60;;;;;;;7.41;88.81;102319.88;5031609;28;20202;-71
2022/06/03 01:42:32;;;;;;;7.30;5.67;;;;;;;7.33;88.91;102321.13;4996778;28;20194;-71
2022/06/03 01:45:10;;;;;;;6.80;6.10;;;;;;;7.37;88.67;102315.41;5012028;28;20183;-71
2022/06/03 01:47:44;;;;;;;8.93;6.20;;;;;;;7.32;89.61;102322.78;5026015;28;20212;-71
2022/06/03 01:50:36;;;;;;;10.97;6.97;;;;;;;7.32;90.75;102320.22;5013181;28;20193;-71
2022/06/03 01:53:18;;;;;;;9.10;6.77;;;;;;;7.33;90.26;102318.56;5030945;28;20669;-71
2022/06/03 01:55:59;;;;;;;9.87;7.00;;;;;;;7.20;89.30;102308.47;5031163;28;20170;-71
2022/06/03 01:58:36;;;;;;;10.60;6.73;;;;;;;7.28;90.08;102313.19;5030520;28;20232;-71
2022/06/03 02:01:21;;;;;;;9.70;7.17;;;;;;;7.38;91.05;102312.06;5030946;28;20681;-71
2022/06/03 02:04:05;;;;;;;8.80;7.07;;;;;;;7.32;90.78;102312.56;5013121;28;20253;-71
2022/06/03 02:07:12;;;;;;;8.73;6.87;;;;;;;7.27;91.20;102308.03;5031319;28;20178;-71
2022/06/03 02:10:04;;;;;;;8.20;6.80;;;;;;;7.24;90.71;102315.50;5020963;28;20236;-71
2022/06/03 02:13:03;;;;;;;7.70;6.90;;;;;;;7.21;91.13;102313.66;5030944;28;20265;-72
2022/06/03 02:15:56;;;;;;;9.07;7.33;;;;;;;7.18;92.07;102312.63;5030361;28;20194;-71
2022/06/03 02:18:59;;;;;;;8.43;6.87;;;;;;;7.14;91.38;102320.88;5030747;28;20202;-71
2022/06/03 02:21:39;;;;;;;10.63;6.80;;;;;;;7.14;91.00;102318.31;5030859;28;20195;-71
2022/06/03 02:24:36;;;;;;;10.37;8.63;;;;;;;7.19;90.82;102322.00;5030386;28;20186;-72
2022/06/03 02:27:25;;;;;;;11.23;8.47;;;;;;;7.22;91.52;102323.06;5030956;28;20191;-71
2022/06/03 02:32:43;;;;;;;36.97;14.67;;;;;;;7.27;96.31;102323.31;5030744;28;20253;-72
2022/06/03 02:35:33;;;;;;;26.63;14.03;;;;;;;7.10;96.97;102311.31;5030539;28;20201;-71
2022/06/03 02:38:32;;;;;;;28.23;13.13;;;;;;;7.07;97.36;102311.13;5029640;28;20221;-71
2022/06/03 02:41:08;;;;;;;20.87;11.57;;;;;;;6.93;97.24;102317.09;5020372;28;20296;-72
2022/06/03 02:44:09;;;;;;;21.13;12.00;;;;;;;6.96;97.34;102317.28;5030374;28;20198;-72
2022/06/03 02:46:51;;;;;;;26.60;11.73;;;;;;;6.88;96.28;102316.84;4949734;29;20315;-71
2022/06/03 02:49:16;;;;;;;13.63;11.40;;;;;;;6.89;96.48;102320.25;5023624;28;20600;-71
2022/06/03 02:51:53;;;;;;;12.23;10.93;;;;;;;6.97;96.52;102321.56;5030579;28;20182;-72
2022/06/03 02:54:24;;;;;;;10.73;9.23;;;;;;;6.85;95.11;102318.31;5030571;28;20170;-71
2022/06/03 02:57:08;;;;;;;10.50;9.40;;;;;;;6.83;94.83;102320.78;5012388;28;20248;-71
2022/06/03 02:59:48;;;;;;;12.30;9.40;;;;;;;6.82;94.66;102315.59;5029938;28;20216;-71
2022/06/03 03:02:21;;;;;;;18.07;10.33;;;;;;;6.84;94.58;102314.91;5029291;28;20273;-71
2022/06/03 03:05:00;;;;;;;13.93;11.13;;;;;;;6.85;94.69;102315.75;5011874;28;20195;-71
2022/06/03 03:07:40;;;;;;;18.63;11.10;;;;;;;6.84;95.22;102319.09;5030096;28;20174;-71
2022/06/03 03:10:21;;;;;;;21.77;11.50;;;;;;;6.82;94.61;102319.00;5029598;28;20177;-71
2022/06/03 03:13:10;;;;;;;18.27;11.60;;;;;;;6.95;93.98;102325.72;5029986;28;20174;-71
2022/06/03 03:15:42;;;;;;;24.03;12.80;;;;;;;7.00;95.25;102326.84;5029283;28;20190;-71
2022/06/03 03:18:22;;;;;;;14.67;12.43;;;;;;;7.00;95.39;102321.75;5029919;28;20257;-72
2022/06/03 03:21:00;;;;;;;46.37;15.40;;;;;;;7.08;95.41;102335.78;4995403;28;20324;-71
2022/06/03 03:23:41;;;;;;;53.67;16.83;;;;;;;7.12;96.77;102315.69;5029863;28;20194;-71
2022/06/03 03:26:17;;;;;;;45.17;16.47;;;;;;;7.13;97.33;102325.06;5011457;28;20182;-71
2022/06/03 03:28:42;;;;;;;39.47;16.03;;;;;;;7.13;98.16;102319.97;5011967;28;20212;-71
2022/06/03 03:31:55;;;;;;;56.07;18.47;;;;;;;7.18;98.68;102321.13;5029717;28;20261;-71
2022/06/03 03:34:21;;;;;;;46.63;16.83;;;;;;;7.23;98.41;102324.81;5029416;28;20259;-71
2022/06/03 03:36:55;;;;;;;64.47;18.00;;;;;;;7.26;99.32;102317.34;5029572;28;20190;-71
2022/06/03 03:39:39;;;;;;;33.10;16.60;;;;;;;7.29;99.00;102319.19;4995180;28;20305;-71
2022/06/03 03:42:23;;;;;;;61.80;17.53;;;;;;;7.33;98.96;102321.97;5029538;28;20206;-71
2022/06/03 03:45:11;;;;;;;81.77;18.67;;;;;;;7.39;99.96;102327.44;5028969;28;20194;-71
2022/06/03 03:48:14;;;;;;;38.67;17.87;;;;;;;7.43;99.50;102319.16;5029492;28;20210;-71
2022/06/03 03:50:57;;;;;;;20.73;15.53;;;;;;;7.44;99.82;102328.56;5011744;28;20186;-71
2022/06/03 03:53:44;;;;;;;25.77;16.63;;;;;;;7.43;100.00;102331.91;5029569;28;20566;-71
2022/06/03 03:56:20;;;;;;;22.20;16.13;;;;;;;7.45;99.46;102331.97;5011450;28;20643;-71
2022/06/03 03:59:10;;;;;;;25.40;16.33;;;;;;;7.51;100.00;102329.78;5011664;28;20206;-71
2022/06/03 04:02:17;;;;;;;33.47;15.00;;;;;;;7.50;99.46;102326.34;5029221;28;20190;-71
2022/06/03 04:05:09;;;;;;;30.80;15.23;;;;;;;7.50;99.54;102328.88;4985136;28;20273;-71
2022/06/03 04:07:46;;;;;;;58.93;17.70;;;;;;;7.59;100.00;102324.31;5009977;28;20214;-71
2022/06/03 04:10:39;;;;;;;40.40;16.60;;;;;;;7.60;100.00;102338.78;5029535;28;20213;-71
2022/06/03 04:13:41;;;;;;;31.13;19.70;;;;;;;7.62;100.00;102324.47;5029507;28;20163;-71
2022/06/03 04:16:25;;;;;;;36.70;19.93;;;;;;;7.66;100.00;102336.59;5032647;28;20193;-71
2022/06/03 04:19:17;;;;;;;24.20;19.97;;;;;;;7.66;100.00;102339.16;5033262;28;20207;-71
2022/06/03 04:22:08;;;;;;;22.40;18.37;;;;;;;7.74;100.00;102342.97;4998699;28;20191;-70
2022/06/03 04:25:10;;;;;;;26.00;18.77;;;;;;;7.85;100.00;102346.13;5032859;28;20187;-72
2022/06/03 04:28:02;;;;;;;23.00;17.43;;;;;;;7.84;100.00;102347.78;5032651;28;20201;-72
2022/06/03 04:30:42;;;;;;;18.50;16.60;;;;;;;7.91;99.68;102339.66;5032974;28;20170;-72
2022/06/03 04:33:30;;;;;;;22.70;15.97;;;;;;;8.05;100.00;102346.38;5027710;28;20197;-72
2022/06/03 04:36:27;;;;;;;16.97;15.17;;;;;;;8.14;99.03;102351.09;5012997;28;20202;-72
2022/06/03 04:39:14;;;;;;;18.43;14.13;;;;;;;8.13;99.41;102345.13;5012595;28;20214;-72
2022/06/03 04:42:21;;;;;;;15.33;13.77;;;;;;;8.26;98.10;102352.69;5012994;28;20202;-72
2022/06/03 04:45:04;;;;;;;13.87;12.47;;;;;;;8.38;98.05;102353.31;5012461;28;20195;-72
2022/06/03 04:48:20;;;;;;;13.13;11.83;;;;;;;8.43;97.10;102348.44;4995268;28;20210;-72
2022/06/03 04:50:54;;;;;;;11.73;10.63;;;;;;;8.51;96.94;102352.25;4994960;28;20560;-73
2022/06/03 04:53:48;;;;;;;10.47;9.53;;;;;;;8.57;96.62;102343.25;4995327;28;20202;-72
2022/06/03 04:56:48;;;;;;;11.40;10.30;;;;;;;8.73;96.66;102345.78;5012144;28;20191;-73
2022/06/03 04:59:51;;;;;;;11.13;10.03;;;;;;;8.88;95.98;102343.09;4994903;28;20216;-72
2022/06/03 05:02:28;;;;;;;11.97;10.30;;;;;;;9.03;95.88;102342.19;5012129;28;20202;-72
2022/06/03 05:05:31;;;;;;;11.20;10.10;;;;;;;9.12;95.71;102340.09;5012466;28;20179;-72
2022/06/03 05:08:27;;;;;;;11.53;10.43;;;;;;;9.29;95.38;102343.47;5011984;28;20253;-72
2022/06/03 05:11:12;;;;;;;11.27;10.17;;;;;;;9.43;95.20;102343.34;5012617;28;20175;-73
2022/06/03 05:13:56;;;;;;;13.80;12.07;;;;;;;9.63;93.99;102339.19;5011242;28;20270;-72
2022/06/03 05:16:42;;;;;;;14.10;12.40;;;;;;;9.73;93.65;102339.66;5012023;28;20295;-73
2022/06/03 05:19:26;;;;;;;11.77;10.57;;;;;;;9.80;94.22;102338.25;5011811;28;20628;-73
2022/06/03 05:22:20;;;;;;;13.43;11.10;;;;;;;9.97;93.96;102339.91;5012487;28;20202;-72
2022/06/03 05:25:17;;;;;;;13.70;11.47;;;;;;;10.06;92.99;102335.25;5004104;28;20241;-72
2022/06/03 05:28:13;;;;;;;13.90;12.40;;;;;;;10.16;93.37;102332.31;5031789;28;20701;-72
2022/06/03 05:30:39;;;;;;;14.20;12.03;;;;;;;10.38;93.06;102338.47;5031885;28;20167;-73
2022/06/03 05:33:22;;;;;;;13.53;11.97;;;;;;;10.51;92.59;102332.19;5031722;28;20186;-72
2022/06/03 05:35:56;;;;;;;15.17;12.87;;;;;;;10.68;92.46;102332.09;5031413;28;20206;-72
2022/06/03 05:38:52;;;;;;;20.07;16.50;;;;;;;10.70;92.65;102329.59;5031721;28;20198;-72
2022/06/03 05:45:05;;;;;;;23.30;18.23;;;;;;;11.02;92.27;102325.00;5031529;28;20190;-73
2022/06/03 05:48:15;;;;;;;21.63;16.97;;;;;;;11.23;91.78;102318.19;5031173;28;20207;-72
2022/06/03 05:50:52;;;;;;;22.47;15.97;;;;;;;11.56;91.17;102322.09;5013832;28;20197;-73
2022/06/03 05:53:29;;;;;;;21.33;15.67;;;;;;;11.73;90.66;102317.63;5031414;28;20269;-72
2022/06/03 05:56:15;;;;;;;18.70;14.90;;;;;;;11.77;89.56;102314.38;5031661;28;20284;-72
2022/06/03 05:58:49;;;;;;;19.60;14.63;;;;;;;11.94;89.27;102311.59;5031007;28;21089;-72
2022/06/03 06:01:41;;;;;;;16.67;13.07;;;;;;;12.13;88.40;102308.91;5013305;28;20221;-72
2022/06/03 06:04:13;;;;;;;17.53;13.17;;;;;;;12.30;87.71;102320.66;5030691;28;20193;-70
2022/06/03 06:07:00;;;;;;;17.27;13.03;;;;;;;12.48;86.77;102307.59;5031191;28;20171;-72
2022/06/03 06:09:46;;;;;;;17.70;12.27;;;;;;;12.73;86.43;102302.50;5030066;28;20222;-72
2022/06/03 06:12:15;;;;;;;14.87;10.87;;;;;;;12.65;85.53;102302.25;5013548;28;20186;-70
2022/06/03 06:14:59;;;;;;;16.83;11.27;;;;;;;12.87;85.02;102298.69;5030467;28;20194;-72
2022/06/03 06:17:39;;;;;;;15.60;11.27;;;;;;;13.14;85.27;102296.16;5030773;28;20193;-72
2022/06/03 06:20:21;;;;;;;14.97;9.90;;;;;;;13.27;84.50;102286.34;5030828;28;20674;-73
2022/06/03 06:22:49;;;;;;;12.00;10.37;;;;;;;13.47;84.39;102289.50;5031079;28;20228;-72
2022/06/03 06:25:38;;;;;;;15.63;10.33;;;;;;;13.69;83.14;102286.78;5030644;28;20261;-73
2022/06/03 06:28:25;;;;;;;10.97;9.20;;;;;;;13.84;82.34;102288.09;4997160;28;20803;-72
2022/06/03 06:31:09;;;;;;;12.43;10.07;;;;;;;13.94;81.49;102287.53;5030571;28;20679;-73
2022/06/03 06:33:58;;;;;;;13.83;8.93;;;;;;;13.87;80.52;102288.19;5030877;28;20190;-72
2022/06/03 06:36:32;;;;;;;12.13;9.47;;;;;;;14.10;81.06;102288.84;5029960;28;20171;-72
2022/06/03 06:39:27;;;;;;;14.60;9.97;;;;;;;14.17;80.13;102290.75;5012751;28;20220;-72
2022/06/03 06:42:16;;;;;;;11.87;8.87;;;;;;;14.38;78.54;102291.38;5008043;28;20644;-73
2022/06/03 06:45:12;;;;;;;12.40;9.30;;;;;;;14.53;77.77;102284.94;5012751;28;20238;-73
2022/06/03 06:47:48;;;;;;;12.07;7.77;;;;;;;14.63;77.85;102292.06;5030195;28;20206;-73
2022/06/03 06:50:23;;;;;;;13.20;7.93;;;;;;;14.99;77.47;102280.13;5030914;28;20186;-73
2022/06/03 06:53:02;;;;;;;11.03;8.10;;;;;;;14.93;75.96;102290.31;5012272;28;20252;-73
2022/06/03 06:55:48;;;;;;;11.10;6.87;;;;;;;15.19;75.84;102284.03;5030175;28;20181;-72
2022/06/03 06:58:29;;;;;;;10.33;7.20;;;;;;;15.25;75.37;102283.31;5008640;28;20226;-74
2022/06/03 07:00:56;;;;;;;9.03;6.70;;;;;;;15.13;75.20;102285.59;5030392;28;20205;-73
2022/06/03 07:03:59;;;;;;;12.23;7.73;;;;;;;15.30;74.57;102284.31;5012105;28;20659;-73
2022/06/03 07:06:44;;;;;;;11.23;6.60;;;;;;;15.71;74.78;102287.00;4998610;28;20205;-70
2022/06/03 07:09:09;;;;;;;9.60;5.97;;;;;;;15.80;71.85;102287.19;5029658;28;20613;-72
2022/06/03 07:11:44;;;;;;;9.07;5.40;;;;;;;15.58;72.30;102297.91;5029941;28;20182;-73
2022/06/03 07:14:20;;;;;;;10.00;6.30;;;;;;;15.61;73.46;102295.38;5029890;28;20204;-73
2022/06/03 07:20:11;;;;;;;8.93;4.43;;;;;;;15.80;70.17;102279.44;5012077;28;20210;-73
2022/06/03 07:22:45;;;;;;;8.77;3.80;;;;;;;15.74;67.89;102281.06;5009933;28;20234;-72
2022/06/03 07:25:33;;;;;;;6.67;4.13;;;;;;;16.20;67.84;102284.59;4992226;28;20183;-73
2022/06/03 07:28:27;;;;;;;7.67;3.70;;;;;;;16.38;66.18;102274.59;4993447;28;20198;-73
2022/06/03 07:31:02;;;;;;;6.67;4.27;;;;;;;16.56;67.07;102271.50;5020964;28;20179;-73
2022/06/03 07:33:30;;;;;;;7.57;3.67;;;;;;;16.83;65.11;102265.13;5028964;28;20689;-72
2022/06/03 07:35:56;;;;;;;5.17;3.13;;;;;;;17.17;65.65;102261.34;5029653;28;20236;-72
2022/06/03 07:38:34;;;;;;;5.50;3.20;;;;;;;16.88;64.33;102267.75;5028994;28;20206;-72
2022/06/03 07:41:05;;;;;;;3.90;3.00;;;;;;;16.97;62.98;102255.84;5029598;28;20198;-72
2022/06/03 07:43:45;;;;;;;10.40;3.40;;;;;;;17.42;63.49;102253.13;5029139;28;20201;-72
2022/06/03 07:46:17;;;;;;;5.13;3.07;;;;;;;17.53;63.24;102244.66;5029422;28;20194;-72
2022/06/03 07:48:43;;;;;;;6.30;3.20;;;;;;;17.58;61.83;102232.63;5010582;28;20297;-72
2022/06/03 07:51:15;;;;;;;4.83;3.50;;;;;;;17.54;61.25;102240.34;5011806;28;20217;-72
2022/06/03 07:54:03;;;;;;;4.40;3.40;;;;;;;17.97;61.52;102237.44;5029210;28;20289;-73
2022/06/03 07:56:31;;;;;;;5.83;3.40;;;;;;;18.24;60.97;102232.56;5029274;28;20205;-72
2022/06/03 07:59:04;;;;;;;6.30;2.90;;;;;;;18.55;61.91;102226.81;5029308;28;20210;-73
2022/06/03 08:01:34;;;;;;;4.83;2.87;;;;;;;18.45;58.96;102228.47;5028894;28;20278;-73
2022/06/03 08:04:00;;;;;;;5.77;2.87;;;;;;;18.45;59.61;102237.97;5029272;28;20202;-73
2022/06/03 08:12:34;;;;;;;5.90;2.50;;;;;;;19.32;56.56;102234.41;4967782;28;20184;-72
2022/06/03 08:15:14;;;;;;;5.33;2.73;;;;;;;19.58;56.12;102232.81;5008433;28;20205;-73
2022/06/03 08:17:40;;;;;;;5.93;2.90;;;;;;;19.54;55.97;102235.38;5011092;28;20228;-72
2022/06/03 08:20:06;;;;;;;4.27;2.40;;;;;;;19.72;55.30;102230.28;5029084;28;20680;-73
2022/06/03 08:22:33;;;;;;;3.60;2.33;;;;;;;19.90;54.82;102232.97;5010968;28;20755;-73
2022/06/03 08:25:00;;;;;;;2.57;2.13;;;;;;;20.02;55.02;102226.06;5028905;28;20224;-73
2022/06/03 08:27:30;;;;;;;5.83;2.60;;;;;;;20.00;53.69;102230.38;5028540;28;20178;-73
2022/06/03 08:30:22;;;;;;;6.70;2.83;;;;;;;19.19;54.45;102232.56;5029213;28;20213;-73
2022/06/03 08:32:52;;;;;;;4.53;2.00;;;;;;;20.18;53.38;102240.88;5007948;28;20224;-72
2022/06/03 08:35:31;;;;;;;3.93;2.13;;;;;;;19.74;52.53;102236.34;5028675;28;20182;-73
2022/06/03 08:38:07;;;;;;;4.97;2.73;;;;;;;20.11;53.78;102233.03;5029127;28;20206;-73
2022/06/03 08:41:00;;;;;;;4.83;2.60;;;;;;;19.99;52.50;102233.00;5028539;28;20687;-73
2022/06/03 08:43:32;;;;;;;4.87;2.63;;;;;;;20.17;53.14;102235.69;5029167;28;20194;-73
2022/06/03 08:46:00;;;;;;;4.57;2.07;;;;;;;20.32;52.03;102227.91;5028450;28;20743;-73
2022/06/03 08:48:34;;;;;;;5.80;3.10;;;;;;;19.94;52.74;102224.31;5028818;28;20240;-73
2022/06/03 08:51:06;;;;;;;3.97;2.80;;;;;;;19.82;54.29;102224.25;5028407;28;20175;-72
2022/06/03 08:54:01;;;;;;;3.43;2.70;;;;;;;20.36;53.30;102217.50;5011119;28;20595;-73
2022/06/03 08:56:32;;;;;;;3.30;2.10;;;;;;;21.07;51.05;102231.44;5028229;28;20174;-73
2022/06/03 08:59:09;;;;;;;5.87;2.27;;;;;;;21.04;49.67;102210.59;5028755;28;20202;-73
2022/06/03 09:01:40;;;;;;;3.70;2.10;;;;;;;21.33;50.33;102221.81;5014401;28;20210;-73
2022/06/03 09:04:21;;;;;;;2.93;2.07;;;;;;;21.64;49.24;102219.97;5032627;28;20244;-73
2022/06/03 09:07:13;;;;;;;4.00;2.20;;;;;;;21.81;48.83;102218.22;5031672;28;20190;-73
2022/06/03 09:10:13;;;;;;;4.03;2.53;;;;;;;21.48;49.23;102218.31;5032190;28;20190;-74
2022/06/03 09:12:53;;;;;;;5.33;2.80;;;;;;;20.22;50.73;102233.97;5010040;28;20218;-73
2022/06/03 09:15:25;;;;;;;5.07;2.50;;;;;;;20.81;50.92;102232.25;5031496;28;20651;-73
2022/06/03 09:17:58;;;;;;;4.17;2.37;;;;;;;21.20;48.55;102222.75;5014084;28;20252;-73
2022/06/03 09:20:49;;;;;;;4.27;2.00;;;;;;;21.62;48.80;102211.31;5031138;28;20217;-73
2022/06/03 09:23:18;;;;;;;4.73;2.20;;;;;;;21.87;50.39;102220.78;5002531;28;20203;-74
2022/06/03 09:25:49;;;;;;;2.47;2.10;;;;;;;22.37;50.17;102212.69;5012447;28;20262;-73
2022/06/03 09:28:28;;;;;;;5.03;2.40;;;;;;;22.23;48.27;102221.47;5012494;28;20245;-72
2022/06/03 09:30:55;;;;;;;3.93;2.00;;;;;;;22.57;48.78;102214.31;5012012;28;20186;-74
2022/06/03 09:33:22;;;;;;;3.57;2.20;;;;;;;22.49;46.94;102218.72;5018080;28;20242;-73
2022/06/03 09:35:52;;;;;;;3.30;2.40;;;;;;;22.86;47.06;102214.91;5027688;28;20240;-73
2022/06/03 09:38:22;;;;;;;4.30;2.67;;;;;;;22.82;45.05;102214.94;5025409;28;20738;-74
2022/06/03 09:40:48;;;;;;;3.57;2.43;;;;;;;22.72;45.94;102206.34;5028640;28;20236;-74
2022/06/03 09:43:24;;;;;;;4.30;2.30;;;;;;;22.60;46.37;102208.19;5031453;28;20225;-73
2022/06/03 09:45:52;;;;;;;2.30;1.83;;;;;;;22.66;45.18;102200.28;5030605;28;20176;-73
2022/06/03 09:48:21;;;;;;;5.20;2.70;;;;;;;22.90;45.57;102195.72;5031195;28;20808;-74
2022/06/03 09:50:49;;;;;;;3.67;2.20;;;;;;;23.19;42.51;102203.28;5030732;28;20179;-73
2022/06/03 09:53:19;;;;;;;3.03;1.80;;;;;;;23.34;43.07;102200.53;5015192;28;20186;-73
2022/06/03 09:55:51;;;;;;;3.03;1.30;;;;;;;23.31;40.23;102192.72;5013516;28;20194;-73
2022/06/03 09:58:22;;;;;;;1.30;1.20;;;;;;;23.57;40.82;102191.50;5030561;28;20222;-74
2022/06/03 10:00:50;;;;;;;2.57;1.40;;;;;;;23.38;38.97;102183.94;5013117;28;20206;-74
2022/06/03 10:03:17;;;;;;;3.43;1.30;;;;;;;23.66;39.64;102188.78;5030780;28;20271;-73
2022/06/03 10:05:47;;;;;;;2.15;1.30;;;;;;;23.86;40.71;102181.56;5030539;28;20178;-74
2022/06/03 10:08:16;;;;;;;1.35;1.13;;;;;;;23.94;39.20;102184.09;5030931;28;20217;-74
2022/06/03 10:13:28;;;;;;;2.05;1.13;;;;;;;24.36;33.80;102179.06;5033908;28;20197;-74
2022/06/03 10:15:56;;;;;;;2.17;0.90;;;;;;;24.21;34.46;102176.69;5031654;28;20625;-74
2022/06/03 10:18:40;;;;;;;1.23;0.85;;;;;;;24.27;34.40;102170.50;5037636;28;20248;-74
2022/06/03 10:21:05;;;;;;;2.55;0.80;;;;;;;24.52;34.47;102164.84;5031850;28;20635;-74
2022/06/03 10:23:36;;;;;;;0.70;0.60;;;;;;;24.64;32.42;102162.03;5036051;28;20268;-73
2022/06/03 10:26:04;;;;;;;1.40;1.00;;;;;;;24.58;33.38;102156.03;5028901;28;20194;-74
2022/06/03 10:28:39;;;;;;;1.15;0.98;;;;;;;24.57;32.55;102160.41;5036922;28;20204;-73
2022/06/03 10:31:11;;;;;;;1.63;1.20;;;;;;;24.76;34.65;102158.34;5046679;28;20533;-73
2022/06/03 10:33:37;;;;;;;1.48;1.38;;;;;;;24.82;35.02;102153.84;5030397;28;20187;-74
2022/06/03 10:36:04;;;;;;;1.90;1.00;;;;;;;24.80;31.14;102157.41;5026510;28;20648;-73
2022/06/03 10:38:33;;;;;;;1.77;0.70;;;;;;;24.74;32.96;102155.78;5032950;28;20273;-74
2022/06/03 10:41:05;;;;;;;1.73;0.70;;;;;;;24.96;31.30;102156.25;5050007;28;20852;-73
2022/06/03 10:43:33;;;;;;;0.63;0.60;;;;;;;24.86;33.24;102157.31;5032393;28;20272;-74
2022/06/03 10:46:19;;;;;;;0.70;0.70;;;;;;;25.04;30.08;102156.97;5005263;28;20335;-73
2022/06/03 10:48:46;;;;;;;0.88;0.57;;;;;;;24.92;29.93;102151.94;5012832;28;20233;-73
2022/06/03 11:02:36;;;;;;;0.85;0.60;;;;;;;24.83;32.44;102131.13;5049592;28;20178;-73
2022/06/03 11:05:12;;;;;;;1.15;0.70;;;;;;;24.59;30.37;102132.44;5024378;28;20617;-74
2022/06/03 11:07:39;;;;;;;0.70;0.70;;;;;;;24.85;31.17;102130.22;5029840;28;20261;-74
2022/06/03 11:10:08;;;;;;;0.60;0.60;;;;;;;24.94;31.24;102124.81;5029538;28;20740;-73
2022/06/03 11:12:34;;;;;;;1.42;0.73;;;;;;;24.31;30.50;102132.91;5029413;28;20185;-74
2022/06/03 11:15:00;;;;;;;0.90;0.75;;;;;;;23.83;30.60;102133.59;5028775;28;20198;-73
2022/06/03 11:17:37;;;;;;;0.80;0.80;;;;;;;23.87;30.31;102122.22;5028041;28;20232;-73
2022/06/03 11:20:32;;;;;;;2.35;0.93;;;;;;;23.88;30.79;102123.94;5048708;28;20220;-73
2022/06/03 11:22:57;;;;;;;1.25;0.68;;;;;;;24.76;31.48;102111.16;5034963;28;20183;-73
2022/06/03 11:25:27;;;;;;;0.98;0.82;;;;;;;24.60;31.92;102115.84;5028850;28;20639;-73
2022/06/03 11:27:56;;;;;;;1.83;0.98;;;;;;;24.84;32.77;102107.53;5029097;28;20242;-74
2022/06/03 11:30:43;;;;;;;1.30;0.80;;;;;;;25.31;32.42;102104.84;5028799;28;20739;-73
2022/06/03 11:33:19;;;;;;;3.00;0.98;;;;;;;25.19;30.28;102101.59;5029249;28;20830;-73
2022/06/03 11:35:51;;;;;;;1.27;0.70;;;;;;;25.25;32.35;102093.59;5028653;28;20166;-73
2022/06/03 11:38:24;;;;;;;1.88;1.00;;;;;;;25.23;30.39;102095.38;5029232;28;20210;-73
2022/06/03 11:40:54;;;;;;;1.25;0.88;;;;;;;25.49;32.03;102087.84;5028161;28;20202;-74
2022/06/03 11:43:29;;;;;;;1.20;0.93;;;;;;;25.59;31.80;102092.88;5029241;28;20328;-74
2022/06/03 11:46:03;;;;;;;1.83;1.00;;;;;;;25.67;32.36;102083.06;5028330;28;20537;-74
2022/06/03 11:48:32;;;;;;;1.70;1.00;;;;;;;25.97;33.69;102078.91;5028989;28;20387;-74
2022/06/03 11:50:59;;;;;;;0.90;0.80;;;;;;;26.06;30.79;102078.66;5028285;28;20182;-74
2022/06/03 11:53:29;;;;;;;2.10;1.13;;;;;;;26.10;31.89;102078.53;5028981;28;20312;-75
2022/06/03 11:56:00;;;;;;;1.25;0.88;;;;;;;26.09;33.87;102079.44;5010988;28;20193;-75
2022/06/03 11:58:28;;;;;;;2.25;1.10;;;;;;;25.60;31.14;102075.38;5028914;28;20621;-75
2022/06/03 12:01:26;;;;;;;1.20;1.00;;;;;;;26.06;32.62;102069.00;5028755;28;20210;-75
2022/06/03 12:04:16;;;;;;;1.75;1.05;;;;;;;26.00;31.61;102063.03;5028795;28;20282;-75
2022/06/03 12:07:09;;;;;;;1.70;0.90;;;;;;;25.76;29.75;102069.72;5009215;28;20190;-74
2022/06/03 12:09:49;;;;;;;2.78;1.20;;;;;;;25.58;31.97;102056.16;5028316;28;20736;-74
2022/06/03 12:15:35;;;;;;;1.75;1.05;;;;;;;26.15;34.93;102055.66;5028208;28;20179;-74
2022/06/03 12:18:07;;;;;;;1.50;1.27;;;;;;;26.08;31.70;102048.84;5035028;28;20205;-74
2022/06/03 12:20:32;;;;;;;0.93;0.93;;;;;;;26.15;31.11;102042.50;5037621;28;20582;-74
2022/06/03 12:23:13;;;;;;;1.55;1.10;;;;;;;26.11;32.39;102047.91;5029098;28;20174;-73
2022/06/03 12:25:54;;;;;;;1.52;1.20;;;;;;;26.19;33.71;102038.03;5010504;28;20194;-73
2022/06/03 12:28:32;;;;;;;4.03;1.20;;;;;;;26.32;33.88;102047.34;5044619;28;20209;-73
2022/06/03 12:31:01;;;;;;;2.38;0.95;;;;;;;25.81;31.11;102044.22;5048068;28;20194;-73
2022/06/03 12:33:45;;;;;;;2.60;1.35;;;;;;;25.69;31.25;102044.50;5048951;28;20190;-73
2022/06/03 12:36:39;;;;;;;1.75;1.00;;;;;;;25.23;31.38;102042.94;5048141;28;20263;-73
2022/06/03 12:39:08;;;;;;;1.90;1.02;;;;;;;25.76;32.15;102040.84;5032258;28;20237;-73
2022/06/03 12:42:00;;;;;;;1.38;1.27;;;;;;;25.84;34.15;102031.00;5032872;28;20283;-73
2022/06/03 12:44:40;;;;;;;2.53;1.23;;;;;;;25.97;32.63;102024.59;5015177;28;20249;-73
2022/06/03 12:47:18;;;;;;;1.85;1.00;;;;;;;26.11;32.14;102024.25;5032811;28;20305;-73
2022/06/03 12:49:43;;;;;;;2.20;1.10;;;;;;;26.40;32.29;102019.09;5014858;28;20190;-73
2022/06/03 12:52:28;;;;;;;1.50;1.00;;;;;;;26.56;32.92;102023.00;5033174;28;20249;-73
2022/06/03 12:55:14;;;;;;;2.63;1.10;;;;;;;26.31;31.75;102022.84;5031837;28;20190;-73
2022/06/03 12:57:52;;;;;;;2.65;1.25;;;;;;;25.92;31.81;102015.09;5022016;28;20332;-73